Terminal Aerodrome Forecast
Issued by NWS Atlanta, GA

Home | Current Version | Previous Version | Text Only | Print | Product List | Glossary On
Versions: 1 2 3 4 5 6 7 8 9 10 11 12 13 14 15 16 17 18 19 20 21 22 23 24 25 26 27 28 29 30
295
FTUS42 KFFC 221408 AAA
TAFAHN
TAF AMD
KAHN 221408Z 2214/2312 06008KT P6SM SKC
      TEMPO 2214/2215 08010G16KT 5SM HZ
     FM221800 09008KT P6SM FEW040
     FM230300 08003KT P6SM SKC
     FM230800 03003KT P6SM FEW230=

USA.gov is the U.S. government's official web portal to all federal, state and local government web resources and services.